createdAt,value
2023-05-18T00:01:15.582Z,2.33
2023-05-18T00:04:17.166Z,1.92
2023-05-18T00:07:18.714Z,2.35
2023-05-18T00:10:20.136Z,2.15
2023-05-18T00:13:21.846Z,1.90
2023-05-18T00:16:23.246Z,2.40
2023-05-18T00:19:24.949Z,1.77
2023-05-18T00:22:26.387Z,2.15
2023-05-18T00:25:27.956Z,2.30
2023-05-18T00:28:29.505Z,1.95
2023-05-18T00:31:32.964Z,1.92
2023-05-18T00:34:34.439Z,2.15
2023-05-18T00:37:35.786Z,1.92
2023-05-18T00:40:37.127Z,2.20
2023-05-18T00:43:40.858Z,2.15
2023-05-18T00:46:44.206Z,2.08
2023-05-18T00:49:45.646Z,2.20
2023-05-18T00:52:46.991Z,1.98
2023-05-18T00:55:48.329Z,1.77
2023-05-18T00:58:50.387Z,1.95
2023-05-18T01:01:51.733Z,2.35
2023-05-18T01:04:53.970Z,3.00
2023-05-18T01:07:56.545Z,2.13
2023-05-18T01:11:05.243Z,2.35
2023-05-18T01:14:11.443Z,2.05
2023-05-18T01:17:17.299Z,2.05
2023-05-18T01:20:26.856Z,2.22
2023-05-18T01:23:29.559Z,2.20
2023-05-18T01:26:32.961Z,2.00
2023-05-18T01:29:34.472Z,2.20
2023-05-18T01:32:42.679Z,2.13
2023-05-18T01:35:50.231Z,2.15
2023-05-18T01:38:52.574Z,1.98
2023-05-18T01:41:59.596Z,2.10
2023-05-18T01:45:03.992Z,1.98
2023-05-18T01:48:06.980Z,2.28
2023-05-18T01:51:08.639Z,2.58
2023-05-18T01:54:11.080Z,2.35
2023-05-18T01:57:12.539Z,2.20
2023-05-18T02:00:14.200Z,1.83
2023-05-18T02:03:16.767Z,2.08
2023-05-18T02:06:18.243Z,2.38
2023-05-18T02:09:20.155Z,2.15
2023-05-18T02:12:21.491Z,2.47
2023-05-18T02:15:22.966Z,1.75
2023-05-18T02:18:26.787Z,1.92
2023-05-18T02:21:28.287Z,1.92
2023-05-18T02:24:29.585Z,1.80
2023-05-18T02:27:31.876Z,1.90
2023-05-18T02:30:33.295Z,2.30
2023-05-18T02:33:40.206Z,2.47
2023-05-18T02:36:42.673Z,1.88
2023-05-18T02:39:44.400Z,2.00
2023-05-18T02:42:45.859Z,2.28
2023-05-18T02:45:47.165Z,1.92
2023-05-18T02:48:48.526Z,2.05
2023-05-18T02:51:49.978Z,2.70
2023-05-18T02:54:54.612Z,2.63
2023-05-18T03:01:00.250Z,2.38
2023-05-18T03:04:01.771Z,2.30
2023-05-18T03:07:03.320Z,1.90
2023-05-18T03:10:04.872Z,2.17
2023-05-18T03:13:06.165Z,2.28
2023-05-18T03:16:07.550Z,2.28
2023-05-18T03:19:09.032Z,2.28
2023-05-18T03:22:10.502Z,2.13
2023-05-18T03:25:12.142Z,2.30
2023-05-18T03:28:13.454Z,2.15
2023-05-18T03:31:14.836Z,3.22
2023-05-18T03:34:16.471Z,2.38
2023-05-18T03:37:17.779Z,2.05
2023-05-18T03:40:19.372Z,2.25
2023-05-18T03:43:20.719Z,2.22
2023-05-18T03:46:22.348Z,2.45
2023-05-18T03:49:23.756Z,3.10
2023-05-18T03:52:25.040Z,1.98
2023-05-18T03:55:26.543Z,2.20
2023-05-18T03:58:27.944Z,2.03
2023-05-18T04:01:30.408Z,2.13
2023-05-18T04:04:31.871Z,2.40
2023-05-18T04:07:33.136Z,2.28
2023-05-18T04:10:34.564Z,2.50
2023-05-18T04:13:37.995Z,2.45
2023-05-18T04:16:39.357Z,2.35
2023-05-18T04:19:40.752Z,2.42
2023-05-18T04:22:43.305Z,2.10
2023-05-18T04:25:44.638Z,2.25
2023-05-18T04:28:47.174Z,2.33
2023-05-18T04:31:48.835Z,1.88
2023-05-18T04:34:50.467Z,2.42
2023-05-18T04:37:51.817Z,2.05
2023-05-18T04:40:53.671Z,1.95
2023-05-18T04:43:54.964Z,2.40
2023-05-18T04:46:56.874Z,2.65
2023-05-18T04:49:58.361Z,2.03
2023-05-18T04:53:02.244Z,1.80
2023-05-18T04:56:03.697Z,1.90
2023-05-18T04:59:05.033Z,2.25
2023-05-18T05:02:07.257Z,2.20
2023-05-18T05:05:08.802Z,2.22
2023-05-18T05:08:10.151Z,2.25
2023-05-18T05:11:11.434Z,2.25
2023-05-18T05:14:12.843Z,2.58
2023-05-18T05:17:14.324Z,2.00
2023-05-18T05:20:16.166Z,2.03
2023-05-18T05:23:17.598Z,1.92
2023-05-18T05:26:19.966Z,1.95
2023-05-18T05:29:21.670Z,2.03
2023-05-18T05:32:22.950Z,2.00
2023-05-18T05:35:24.390Z,2.47
2023-05-18T05:38:25.705Z,2.22
2023-05-18T05:41:27.153Z,2.20
2023-05-18T05:44:28.432Z,2.20
2023-05-18T05:47:29.796Z,2.20
2023-05-18T05:50:31.828Z,3.03
2023-05-18T05:53:33.224Z,2.92
2023-05-18T05:56:34.541Z,2.80
2023-05-18T05:59:36.053Z,2.88
2023-05-18T06:02:37.928Z,2.35
2023-05-18T06:05:39.454Z,3.05
2023-05-18T06:08:40.802Z,2.97
2023-05-18T06:11:42.448Z,2.83
2023-05-18T06:14:43.889Z,2.25
2023-05-18T06:17:45.503Z,2.08
2023-05-18T06:20:46.826Z,2.70
2023-05-18T06:23:48.175Z,2.60
2023-05-18T06:26:49.485Z,2.80
2023-05-18T06:29:50.780Z,2.33
2023-05-18T06:32:52.193Z,2.03
2023-05-18T06:35:53.606Z,2.17
2023-05-18T06:38:55.105Z,2.13
2023-05-18T06:41:56.484Z,1.58
2023-05-18T06:44:57.818Z,1.90
2023-05-18T06:47:59.213Z,1.75
2023-05-18T06:51:00.573Z,2.38
2023-05-18T06:54:01.928Z,2.20
2023-05-18T06:57:03.356Z,2.38
2023-05-18T07:00:07.343Z,2.15
2023-05-18T07:03:08.793Z,1.70
2023-05-18T07:06:10.439Z,2.65
2023-05-18T07:09:11.983Z,1.60
2023-05-18T07:12:13.734Z,2.40
2023-05-18T07:15:15.240Z,1.73
2023-05-18T07:18:17.182Z,1.60
2023-05-18T07:21:18.854Z,1.88
2023-05-18T07:24:20.998Z,1.83
2023-05-18T07:27:22.501Z,2.05
2023-05-18T07:30:24.040Z,1.48
2023-05-18T07:33:25.522Z,1.70
2023-05-18T07:36:28.561Z,1.90
2023-05-18T07:39:29.943Z,1.90
2023-05-18T07:42:34.012Z,1.90
2023-05-18T07:45:35.540Z,1.95
2023-05-18T07:48:38.482Z,1.40
2023-05-18T07:51:42.467Z,1.73
2023-05-18T07:54:44.243Z,1.50
2023-05-18T07:57:45.736Z,1.83
2023-05-18T08:00:47.269Z,1.83
2023-05-18T08:03:51.016Z,1.60
2023-05-18T08:06:54.869Z,1.80
2023-05-18T08:09:56.992Z,1.52
2023-05-18T08:12:58.330Z,1.50
2023-05-18T08:16:10.387Z,2.03
2023-05-18T08:19:12.292Z,1.42
2023-05-18T08:22:14.211Z,1.50
2023-05-18T08:25:15.607Z,1.73
2023-05-18T08:28:16.916Z,1.73
2023-05-18T08:31:18.405Z,1.60
2023-05-18T08:34:19.861Z,1.75
2023-05-18T08:37:22.156Z,1.48
2023-05-18T08:40:26.025Z,1.45
2023-05-18T08:43:33.351Z,1.70
2023-05-18T08:46:35.843Z,1.60
2023-05-18T08:49:37.473Z,1.50
2023-05-18T08:52:42.185Z,1.50
2023-05-18T08:55:45.354Z,1.30
2023-05-18T08:58:48.260Z,1.50
2023-05-18T09:01:51.209Z,1.63
2023-05-18T09:04:53.364Z,1.60
2023-05-18T09:07:54.996Z,1.33
2023-05-18T09:10:57.322Z,1.50
2023-05-18T09:14:02.836Z,1.60
2023-05-18T09:17:04.365Z,1.60
2023-05-18T09:20:06.894Z,1.70
2023-05-18T09:23:08.379Z,1.40
2023-05-18T09:26:11.354Z,1.40
2023-05-18T09:29:17.136Z,1.38
2023-05-18T09:32:18.621Z,1.88
2023-05-18T09:35:20.260Z,1.30
2023-05-18T09:38:22.692Z,1.30
2023-05-18T09:41:26.236Z,1.25
2023-05-18T09:44:32.448Z,1.50
2023-05-18T09:47:34.402Z,1.40
2023-05-18T09:50:37.379Z,1.60
2023-05-18T09:53:40.986Z,1.50
2023-05-18T09:56:50.030Z,1.60
2023-05-18T10:00:02.542Z,1.90
2023-05-18T10:03:05.582Z,1.83
2023-05-18T10:06:10.387Z,1.42
2023-05-18T10:09:15.894Z,1.70
2023-05-18T10:12:18.854Z,1.50
2023-05-18T10:15:21.229Z,2.05
2023-05-18T10:18:41.064Z,1.67
2023-05-18T10:21:42.995Z,1.50
2023-05-18T10:24:45.775Z,1.70
2023-05-18T10:27:49.201Z,1.30
2023-05-18T10:30:51.537Z,1.73
2023-05-18T10:33:53.156Z,1.70
2023-05-18T10:36:54.828Z,1.50
2023-05-18T10:39:56.529Z,1.80
2023-05-18T10:42:58.786Z,1.60
2023-05-18T10:46:01.301Z,1.65
2023-05-18T10:49:04.263Z,1.70
2023-05-18T10:52:06.595Z,1.23
2023-05-18T10:55:08.429Z,1.70
2023-05-18T10:58:14.097Z,1.77
2023-05-18T11:01:15.806Z,2.00
2023-05-18T11:04:22.533Z,1.55
2023-05-18T11:07:24.948Z,1.52
2023-05-18T11:10:33.042Z,1.83
2023-05-18T11:13:35.488Z,1.45
2023-05-18T11:16:37.208Z,1.80
2023-05-18T11:19:38.665Z,1.50
2023-05-18T11:22:41.776Z,1.50
2023-05-18T11:25:43.869Z,1.58
2023-05-18T11:28:47.808Z,2.13
2023-05-18T11:31:54.567Z,1.48
2023-05-18T11:34:56.285Z,1.63
2023-05-18T11:38:06.578Z,1.65
2023-05-18T11:41:08.493Z,1.58
2023-05-18T11:44:14.854Z,1.60
2023-05-18T11:47:18.421Z,1.42
2023-05-18T11:50:19.842Z,1.70
2023-05-18T11:53:25.145Z,1.40
2023-05-18T11:56:26.983Z,1.70
2023-05-18T11:59:32.527Z,1.38
2023-05-18T12:02:34.780Z,1.60
2023-05-18T12:05:36.595Z,1.70
2023-05-18T12:08:43.950Z,1.52
2023-05-18T12:11:45.374Z,1.58
2023-05-18T12:14:50.174Z,1.63
2023-05-18T12:17:51.956Z,1.80
2023-05-18T12:20:53.766Z,1.50
2023-05-18T12:24:01.417Z,1.65
2023-05-18T12:27:07.335Z,1.70
2023-05-18T12:30:38.265Z,1.58
2023-05-18T12:33:39.610Z,1.38
2023-05-18T12:36:43.258Z,1.30
2023-05-18T12:39:44.622Z,1.90
2023-05-18T12:42:52.819Z,1.50
2023-05-18T12:45:54.188Z,1.77
2023-05-18T12:48:56.628Z,1.92
2023-05-18T12:52:07.796Z,1.60
2023-05-18T12:55:10.640Z,1.48
2023-05-18T12:58:16.830Z,1.67
2023-05-18T13:01:18.550Z,1.60
2023-05-18T13:04:19.954Z,1.75
2023-05-18T13:07:22.528Z,1.90
2023-05-18T13:10:23.960Z,1.75
2023-05-18T13:13:25.295Z,1.55
2023-05-18T13:16:28.374Z,2.30
2023-05-18T13:19:31.537Z,1.50
2023-05-18T13:22:33.034Z,1.60
2023-05-18T13:25:34.427Z,2.40
2023-05-18T13:28:35.994Z,1.42
2023-05-18T13:31:37.459Z,1.40
2023-05-18T13:34:38.855Z,1.42
2023-05-18T13:37:40.466Z,1.73
2023-05-18T13:40:42.169Z,1.48
2023-05-18T13:43:43.596Z,1.42
2023-05-18T13:46:44.928Z,1.50
2023-05-18T13:49:46.239Z,1.50
2023-05-18T13:52:47.843Z,1.60
2023-05-18T13:55:49.543Z,1.42
2023-05-18T13:58:50.877Z,1.85
2023-05-18T14:01:52.337Z,1.60
2023-05-18T14:04:53.752Z,1.60
2023-05-18T14:07:56.623Z,1.42
2023-05-18T14:10:57.949Z,1.27
2023-05-18T14:13:59.247Z,1.48
2023-05-18T14:17:00.661Z,1.73
2023-05-18T14:20:02.177Z,1.83
2023-05-18T14:23:04.905Z,1.30
2023-05-18T14:26:06.848Z,1.40
2023-05-18T14:29:08.188Z,1.70
2023-05-18T14:32:09.698Z,1.55
2023-05-18T14:35:11.134Z,1.38
2023-05-18T14:38:12.561Z,1.60
2023-05-18T14:41:14.201Z,1.30
2023-05-18T14:44:15.519Z,1.42
2023-05-18T14:47:17.855Z,1.58
2023-05-18T14:50:19.267Z,1.60
2023-05-18T14:53:20.789Z,1.40
2023-05-18T14:56:22.752Z,1.83
2023-05-18T14:59:24.190Z,1.67
2023-05-18T15:02:25.608Z,1.77
2023-05-18T15:05:27.175Z,1.40
2023-05-18T15:08:28.446Z,1.50
2023-05-18T15:11:29.741Z,1.50
2023-05-18T15:14:31.059Z,1.38
2023-05-18T15:17:32.485Z,1.65
2023-05-18T15:20:34.036Z,1.50
2023-05-18T15:23:35.359Z,1.63
2023-05-18T15:26:36.853Z,1.52
2023-05-18T15:29:38.719Z,1.73
2023-05-18T15:32:41.113Z,1.60
2023-05-18T15:35:42.843Z,1.73
2023-05-18T15:38:44.262Z,1.70
2023-05-18T15:41:46.323Z,1.70
2023-05-18T15:44:48.174Z,1.73
2023-05-18T15:47:49.496Z,1.42
2023-05-18T15:50:50.956Z,1.52
2023-05-18T15:53:52.565Z,1.95
2023-05-18T15:56:53.968Z,1.60
2023-05-18T15:59:55.372Z,2.35
2023-05-18T16:02:57.198Z,1.75
2023-05-18T16:05:58.717Z,2.10
2023-05-18T16:09:00.098Z,1.95
2023-05-18T16:12:01.549Z,1.60
2023-05-18T16:15:03.013Z,1.58
2023-05-18T16:18:04.590Z,1.60
2023-05-18T16:21:05.972Z,1.67
2023-05-18T16:24:07.444Z,1.67
2023-05-18T16:27:09.356Z,1.60
2023-05-18T16:30:10.851Z,1.52
2023-05-18T16:33:12.229Z,1.50
2023-05-18T16:36:13.612Z,1.90
2023-05-18T16:39:15.032Z,1.48
2023-05-18T16:42:18.368Z,2.45
2023-05-18T16:45:19.784Z,1.58
2023-05-18T16:48:21.196Z,1.60
2023-05-18T16:51:22.508Z,1.60
2023-05-18T16:54:23.854Z,1.73
2023-05-18T16:57:27.459Z,1.80
2023-05-18T17:00:29.174Z,1.63
2023-05-18T17:03:34.163Z,1.63
2023-05-18T17:06:36.085Z,1.77
2023-05-18T17:09:40.096Z,1.60
2023-05-18T17:12:41.488Z,1.90
2023-05-18T17:15:42.898Z,1.80
2023-05-18T17:18:44.335Z,1.75
2023-05-18T17:21:45.929Z,2.65
2023-05-18T17:24:47.319Z,2.30
2023-05-18T17:27:48.637Z,2.28
2023-05-18T17:30:49.981Z,3.40
2023-05-18T17:33:51.317Z,1.95
2023-05-18T17:36:54.855Z,2.60
2023-05-18T17:39:56.162Z,2.40
2023-05-18T17:42:58.552Z,2.03
2023-05-18T17:45:59.923Z,2.33
2023-05-18T17:49:03.729Z,3.40
2023-05-18T17:52:05.204Z,2.92
2023-05-18T17:55:06.801Z,2.97
2023-05-18T17:58:08.166Z,3.67
2023-05-18T18:01:10.393Z,4.00
2023-05-18T18:04:11.916Z,2.20
2023-05-18T18:07:13.312Z,3.72
2023-05-18T18:10:14.654Z,3.00
2023-05-18T18:13:16.031Z,2.70
2023-05-18T18:16:17.829Z,2.42
2023-05-18T18:19:19.343Z,2.40
2023-05-18T18:22:20.671Z,2.67
2023-05-18T18:25:22.006Z,2.50
2023-05-18T18:28:23.316Z,2.05
2023-05-18T18:31:24.701Z,3.00
2023-05-18T18:34:26.023Z,3.42
2023-05-18T18:37:28.364Z,2.97
2023-05-18T18:40:30.158Z,2.97
2023-05-18T18:43:31.684Z,2.13
2023-05-18T18:46:33.281Z,2.95
2023-05-18T18:49:34.661Z,3.13
2023-05-18T18:52:35.985Z,3.15
2023-05-18T18:55:37.299Z,3.20
2023-05-18T18:58:38.749Z,3.05
2023-05-18T19:01:40.124Z,3.25
2023-05-18T19:04:41.496Z,3.15
2023-05-18T19:07:42.809Z,2.35
2023-05-18T19:10:44.771Z,3.60
2023-05-18T19:13:46.071Z,2.88
2023-05-18T19:16:47.560Z,2.45
2023-05-18T19:19:49.198Z,2.20
2023-05-18T19:22:53.091Z,2.55
2023-05-18T19:25:54.801Z,2.55
2023-05-18T19:28:56.270Z,2.22
2023-05-18T19:31:57.708Z,3.42
2023-05-18T19:34:59.023Z,2.88
2023-05-18T19:38:02.144Z,2.33
2023-05-18T19:41:03.493Z,2.83
2023-05-18T19:44:04.867Z,2.15
2023-05-18T19:47:06.260Z,2.10
2023-05-18T19:50:08.076Z,4.53
2023-05-18T19:53:09.440Z,3.03
2023-05-18T19:56:11.186Z,2.42
2023-05-18T19:59:12.553Z,2.30
2023-05-18T20:02:13.910Z,2.50
2023-05-18T20:05:18.750Z,3.45
2023-05-18T20:08:20.370Z,3.30
2023-05-18T20:11:22.316Z,2.85
2023-05-18T20:14:23.794Z,3.25
2023-05-18T20:17:25.683Z,2.47
2023-05-18T20:20:30.579Z,2.33
2023-05-18T20:23:32.239Z,3.13
2023-05-18T20:26:33.628Z,2.42
2023-05-18T20:29:34.943Z,3.08
2023-05-18T20:32:36.302Z,3.25
2023-05-18T20:35:37.684Z,2.70
2023-05-18T20:38:39.021Z,3.30
2023-05-18T20:41:41.649Z,2.88
2023-05-18T20:44:42.994Z,2.53
2023-05-18T20:47:44.393Z,2.45
2023-05-18T20:50:45.787Z,3.25
2023-05-18T20:53:47.113Z,2.47
2023-05-18T20:56:48.812Z,3.47
2023-05-18T20:59:50.135Z,2.67
2023-05-18T21:02:52.115Z,2.60
2023-05-18T21:05:53.561Z,3.03
2023-05-18T21:08:54.890Z,2.42
2023-05-18T21:11:56.365Z,2.40
2023-05-18T21:14:57.720Z,2.80
2023-05-18T21:17:59.086Z,3.65
2023-05-18T21:21:00.818Z,3.38
2023-05-18T21:24:02.173Z,3.88
2023-05-18T21:27:03.632Z,3.35
2023-05-18T21:30:05.190Z,2.90
2023-05-18T21:33:06.591Z,2.63
2023-05-18T21:36:09.833Z,2.45
2023-05-18T21:39:11.462Z,2.30
2023-05-18T21:42:12.786Z,3.53
2023-05-18T21:45:14.469Z,2.28
2023-05-18T21:48:15.768Z,2.05
2023-05-18T21:51:17.261Z,2.03
2023-05-18T21:54:18.629Z,2.25
2023-05-18T21:57:19.979Z,2.42
2023-05-18T22:00:21.891Z,2.20
2023-05-18T22:03:23.563Z,2.60
2023-05-18T22:06:24.952Z,2.50
2023-05-18T22:09:26.319Z,2.20
2023-05-18T22:12:27.603Z,2.20
2023-05-18T22:15:28.985Z,2.00
2023-05-18T22:18:30.322Z,2.53
2023-05-18T22:21:31.692Z,2.08
2023-05-18T22:24:33.075Z,1.80
2023-05-18T22:27:36.356Z,2.30
2023-05-18T22:30:37.851Z,2.00
2023-05-18T22:33:39.181Z,2.13
2023-05-18T22:36:40.552Z,1.85
2023-05-18T22:39:41.831Z,1.80
2023-05-18T22:42:43.124Z,1.83
2023-05-18T22:45:44.436Z,1.90
2023-05-18T22:48:45.723Z,2.10
2023-05-18T22:51:47.023Z,2.13
2023-05-18T22:54:49.839Z,1.98
2023-05-18T22:57:51.125Z,2.17
2023-05-18T23:00:52.731Z,2.67
2023-05-18T23:03:54.670Z,2.42
2023-05-18T23:06:56.985Z,2.80
2023-05-18T23:09:58.597Z,2.08
2023-05-18T23:12:59.921Z,1.73
2023-05-18T23:16:01.369Z,2.20
2023-05-18T23:19:03.043Z,1.63
2023-05-18T23:22:05.535Z,2.03
2023-05-18T23:25:08.666Z,1.80
2023-05-18T23:28:10.104Z,2.03
2023-05-18T23:31:11.450Z,2.83
2023-05-18T23:34:12.941Z,1.80
2023-05-18T23:37:17.846Z,2.30
2023-05-18T23:40:19.465Z,1.60
2023-05-18T23:43:20.988Z,1.98
2023-05-18T23:46:22.926Z,2.05
2023-05-18T23:49:24.554Z,1.98
2023-05-18T23:52:28.374Z,2.25
2023-05-18T23:55:30.746Z,1.73
2023-05-18T23:58:32.233Z,1.65
